F/V Moorea — FMIT — position and weather

sailwx.info

Track history (hours):
 
Tides and Currents Weather Stations Pressure Air Temp Water Temp Dewpoint Dewpoint Depression Visibility Wind Speed Wind Dir Waves Ship Positions

F/V Moorea

Last reported at 2016-Jul-23 08:34 UTC. Time now 2016-Jul-24 18:34 UTC.
Position N 47°18' W 002°31'.

Length 18 m.

Type: Fishing. MMSI: 228239900.

Date/timePositionNaut miles runAvg speedWind from/ knotsBaromVisibWave heightAir tempDewpointWater temp
2016-Jul-23 08:34N 47°18' W 002°31'0 0.0
2016-Jul-23 07:34N 47°18' W 002°31'0 0.0
2016-Jul-23 06:33N 47°18' W 002°31'0 0.0
2016-Jul-23 04:33N 47°18' W 002°31'0 0.0
2016-Jul-23 03:33N 47°18' W 002°31'0 0.0
2016-Jul-23 02:33N 47°18' W 002°31'0 0.0
2016-Jul-23 01:33N 47°18' W 002°31'0 0.0
2016-Jul-23 00:33N 47°18' W 002°31'0 0.0
2016-Jul-22 23:33N 47°18' W 002°31'0 0.0
2016-Jul-22 22:33N 47°18' W 002°31'0 0.0
2016-Jul-22 21:33N 47°18' W 002°31'0 0.0
2016-Jul-22 20:33N 47°18' W 002°31'0 0.0
2016-Jul-22 18:16N 47°18' W 002°31'0 0.0
2016-Jul-22 17:33N 47°18' W 002°31'0 0.1
2016-Jul-22 16:33N 47°18' W 002°31'5 4.8
2016-Jul-22 15:33N 47°15' W 002°36'8 8.2
2016-Jul-22 14:33N 47°08' W 002°43'8 7.8
2016-Jul-22 13:32N 47°02' W 002°50'24 5.9
2016-Jul-22 09:30N 46°41' W 003°08'5 1.7
2016-Jul-22 06:21N 46°36' W 003°04'7 3.4
2016-Jul-22 04:24N 46°43' W 003°02'3 0.6
2016-Jul-21 23:24N 46°41' W 002°59'4 3.9
2016-Jul-21 22:30N 46°43' W 003°02'7 7.9
2016-Jul-21 21:33N 46°51' W 002°58'1010.5
2016-Jul-21 20:33N 46°60' W 002°51'1110.7
2016-Jul-21 19:34N 47°09' W 002°43'1010.4
2016-Jul-21 18:33N 47°18' W 002°35'3 2.6
2016-Jul-21 17:32N 47°18' W 002°31'1 0.9
2016-Jul-21 16:33N 47°19' W 002°32'8 7.8
2016-Jul-21 15:32N 47°12' W 002°39'8 8.0
2016-Jul-21 14:32N 47°06' W 002°47'28 5.2
2016-Jul-21 09:13N 46°44' W 003°10'3 1.0
2016-Jul-21 06:27N 46°47' W 003°09'3 1.7
2016-Jul-21 04:33N 46°49' W 003°12'4 3.4
2016-Jul-21 03:14N 46°48' W 003°18'2 3.1
2016-Jul-21 02:27N 46°49' W 003°15'6 0.6
2016-Jul-20 17:30N 46°46' W 003°08'3 1.4
2016-Jul-20 15:28N 46°44' W 003°10'1 0.6
2016-Jul-20 13:19N 46°44' W 003°12'3 3.6
2016-Jul-20 12:24N 46°47' W 003°12'3 3.4
2016-Jul-20 11:29N 46°50' W 003°13'6 3.0
2016-Jul-20 09:32N 46°44' W 003°11'10 5.1
2016-Jul-20 07:33N 46°53' W 003°06'10 9.7
2016-Jul-20 06:33N 47°01' W 002°56'10 9.8
2016-Jul-20 05:33N 47°08' W 002°47'9 9.4
2016-Jul-20 04:33N 47°15' W 002°38'6 5.5
2016-Jul-20 03:32N 47°18' W 002°31'0 0.0
2016-Jul-20 02:34N 47°18' W 002°31'0 0.0
2016-Jul-20 01:34N 47°18' W 002°31'3 2.7
2016-Jul-20 00:33N 47°18' W 002°35'10 9.6
2016-Jul-19 23:34N 47°11' W 002°44'9 8.7
2016-Jul-19 22:33N 47°04' W 002°53'9 8.6
2016-Jul-19 21:33N 46°57' W 003°01'10 8.3
2016-Jul-19 20:24N 46°50' W 003°10'2 2.6
2016-Jul-19 19:33N 46°48' W 003°08'2 1.7
2016-Jul-19 18:21N 46°46' W 003°09'2 1.0
2016-Jul-19 16:33N 46°45' W 003°11'2 2.1
2016-Jul-19 15:34N 46°45' W 003°08'1 0.3
2016-Jul-19 11:30N 46°46' W 003°09'2 1.5
2016-Jul-19 10:06N 46°44' W 003°07'2 3.8
2016-Jul-19 09:30N 46°42' W 003°08'1 1.3
2016-Jul-19 08:33N 46°43' W 003°09'3 3.3
2016-Jul-19 07:34N 46°46' W 003°09'2 0.6
2016-Jul-19 04:33N 46°48' W 003°11'2 1.0
2016-Jul-19 02:33N 46°49' W 003°13'3 1.2
2016-Jul-19 00:21N 46°48' W 003°17'3 3.7
2016-Jul-18 23:32N 46°49' W 003°13'2 1.1
2016-Jul-18 21:15N 46°48' W 003°16'3 4.4
2016-Jul-18 20:33N 46°48' W 003°12'11 1.5
2016-Jul-18 13:12N 46°40' W 003°02'4 2.6
2016-Jul-18 11:30N 46°44' W 002°59'16 8.1
2016-Jul-18 09:33N 46°57' W 002°46'5 4.4
2016-Jul-18 08:27N 47°02' W 002°47'7 7.9
2016-Jul-18 07:33N 47°02' W 002°58'5 5.3
2016-Jul-18 06:33N 47°03' W 003°06'7 6.9
2016-Jul-18 05:33N 47°06' W 002°57'9 9.4
2016-Jul-18 04:33N 47°11' W 002°45'9 8.8
2016-Jul-18 03:33N 47°17' W 002°36'3 3.3
2016-Jul-18 02:32N 47°18' W 002°31'0 0.0
2016-Jul-18 01:32N 47°18' W 002°31'0 0.0
2016-Jul-17 22:08N 47°18' W 002°31'0 0.0
2016-Jul-17 21:33N 47°18' W 002°31'0 0.0
2016-Jul-17 18:32N 47°18' W 002°31'0 0.0
2016-Jul-17 17:32N 47°18' W 002°31'0 0.0
2016-Jul-17 02:33N 47°18' W 002°31'0 0.0
2016-Jul-17 01:33N 47°18' W 002°31'0 0.0
2016-Jul-16 22:32N 47°18' W 002°31'0 0.0
2016-Jul-16 20:24N 47°18' W 002°31'0 0.0
2016-Jul-16 18:33N 47°18' W 002°31'2 2.1
2016-Jul-16 17:33N 47°18' W 002°34'9 9.2
2016-Jul-16 16:33N 47°11' W 002°44'9 9.3
2016-Jul-16 15:33N 47°05' W 002°54'11 9.4
2016-Jul-16 14:24N 46°58' W 003°06'9 9.5
2016-Jul-16 13:27N 46°52' W 003°15'4 3.9
2016-Jul-16 12:33N 46°51' W 003°21'4 3.8
2016-Jul-16 11:32N 46°48' W 003°19'1 0.5
2016-Jul-16 10:28N 46°47' W 003°19'3 3.6
2016-Jul-16 09:33N 46°44' W 003°18'4 3.5
2016-Jul-16 08:30N 46°47' W 003°16'4 3.7
2016-Jul-16 07:33N 46°50' W 003°14'1 1.2
2016-Jul-16 06:32N 46°49' W 003°14'12 6.0
2016-Jul-16 04:33N 46°57' W 003°02'10 9.9
2016-Jul-16 03:33N 47°04' W 002°52'10 9.9
2016-Jul-16 02:33N 47°12' W 002°42'10 9.9
2016-Jul-16 01:33N 47°19' W 002°32'2 2.0
2016-Jul-16 00:33N 47°18' W 002°35'9 9.4
2016-Jul-15 23:33N 47°10' W 002°42'10 9.9
2016-Jul-15 22:33N 47°02' W 002°51'10 9.6
2016-Jul-15 21:33N 46°54' W 002°60'9 8.6
2016-Jul-15 20:33N 46°48' W 003°07'4 3.4
2016-Jul-15 19:32N 46°50' W 003°12'2 1.2
2016-Jul-15 17:33N 46°49' W 003°15'4 0.9
2016-Jul-15 13:28N 46°46' W 003°18'2 2.0
2016-Jul-15 12:27N 46°44' W 003°18'3 3.8
2016-Jul-15 11:33N 46°48' W 003°19'4 3.8
2016-Jul-15 10:32N 46°52' W 003°18'3 3.6
2016-Jul-15 09:33N 46°53' W 003°23'4 3.5
2016-Jul-15 08:31N 46°57' W 003°24'1 0.9
2016-Jul-15 07:21N 46°57' W 003°23'2 2.6
2016-Jul-15 06:32N 46°55' W 003°24'1 1.2
2016-Jul-15 05:33N 46°55' W 003°22'4 3.8
2016-Jul-15 04:33N 46°59' W 003°23'4 4.5
2016-Jul-15 03:33N 47°00' W 003°16'9 8.7
2016-Jul-15 02:33N 47°05' W 003°05'8 8.4
2016-Jul-15 01:33N 47°09' W 002°55'8 7.9
2016-Jul-15 00:33N 47°12' W 002°44'8 7.8
2016-Jul-14 23:33N 47°18' W 002°36'4 3.4
2016-Jul-14 22:32N 47°18' W 002°31'3 3.3
2016-Jul-14 21:33N 47°17' W 002°35'9 9.3
2016-Jul-14 20:33N 47°10' W 002°44'10 9.6
2016-Jul-14 19:33N 47°03' W 002°54'  
Track history (hours):
 
Tides and Currents Weather Stations Pressure Air Temp Water Temp Dewpoint Dewpoint Depression Visibility Wind Speed Wind Dir Waves Ship Positions

F/V Moorea

Last reported at 2016-Jul-23 08:34 UTC. Time now 2016-Jul-24 18:34 UTC.
Position N 47°18' W 002°31'.

Length 18 m.

Type: Fishing. MMSI: 228239900.

Date/timePositionNaut miles runAvg speedWind from/ knotsBaromVisibWave heightAir tempDewpointWater temp
2016-Jul-23 08:34N 47°18' W 002°31'0 0.0
2016-Jul-23 07:34N 47°18' W 002°31'0 0.0
2016-Jul-23 06:33N 47°18' W 002°31'0 0.0
2016-Jul-23 04:33N 47°18' W 002°31'0 0.0
2016-Jul-23 03:33N 47°18' W 002°31'0 0.0
2016-Jul-23 02:33N 47°18' W 002°31'0 0.0
2016-Jul-23 01:33N 47°18' W 002°31'0 0.0
2016-Jul-23 00:33N 47°18' W 002°31'0 0.0
2016-Jul-22 23:33N 47°18' W 002°31'0 0.0
2016-Jul-22 22:33N 47°18' W 002°31'0 0.0
2016-Jul-22 21:33N 47°18' W 002°31'0 0.0
2016-Jul-22 20:33N 47°18' W 002°31'0 0.0
2016-Jul-22 18:16N 47°18' W 002°31'0 0.0
2016-Jul-22 17:33N 47°18' W 002°31'0 0.1
2016-Jul-22 16:33N 47°18' W 002°31'5 4.8
2016-Jul-22 15:33N 47°15' W 002°36'8 8.2
2016-Jul-22 14:33N 47°08' W 002°43'8 7.8
2016-Jul-22 13:32N 47°02' W 002°50'24 5.9
2016-Jul-22 09:30N 46°41' W 003°08'5 1.7
2016-Jul-22 06:21N 46°36' W 003°04'7 3.4
2016-Jul-22 04:24N 46°43' W 003°02'3 0.6
2016-Jul-21 23:24N 46°41' W 002°59'4 3.9
2016-Jul-21 22:30N 46°43' W 003°02'7 7.9
2016-Jul-21 21:33N 46°51' W 002°58'1010.5
2016-Jul-21 20:33N 46°60' W 002°51'1110.7
2016-Jul-21 19:34N 47°09' W 002°43'1010.4
2016-Jul-21 18:33N 47°18' W 002°35'3 2.6
2016-Jul-21 17:32N 47°18' W 002°31'1 0.9
2016-Jul-21 16:33N 47°19' W 002°32'8 7.8
2016-Jul-21 15:32N 47°12' W 002°39'8 8.0
2016-Jul-21 14:32N 47°06' W 002°47'28 5.2
2016-Jul-21 09:13N 46°44' W 003°10'3 1.0
2016-Jul-21 06:27N 46°47' W 003°09'3 1.7
2016-Jul-21 04:33N 46°49' W 003°12'4 3.4
2016-Jul-21 03:14N 46°48' W 003°18'2 3.1
2016-Jul-21 02:27N 46°49' W 003°15'6 0.6
2016-Jul-20 17:30N 46°46' W 003°08'3 1.4
2016-Jul-20 15:28N 46°44' W 003°10'1 0.6
2016-Jul-20 13:19N 46°44' W 003°12'3 3.6
2016-Jul-20 12:24N 46°47' W 003°12'3 3.4
2016-Jul-20 11:29N 46°50' W 003°13'6 3.0
2016-Jul-20 09:32N 46°44' W 003°11'10 5.1
2016-Jul-20 07:33N 46°53' W 003°06'10 9.7
2016-Jul-20 06:33N 47°01' W 002°56'10 9.8
2016-Jul-20 05:33N 47°08' W 002°47'9 9.4
2016-Jul-20 04:33N 47°15' W 002°38'6 5.5
2016-Jul-20 03:32N 47°18' W 002°31'0 0.0
2016-Jul-20 02:34N 47°18' W 002°31'0 0.0
2016-Jul-20 01:34N 47°18' W 002°31'3 2.7
2016-Jul-20 00:33N 47°18' W 002°35'10 9.6
2016-Jul-19 23:34N 47°11' W 002°44'9 8.7
2016-Jul-19 22:33N 47°04' W 002°53'9 8.6
2016-Jul-19 21:33N 46°57' W 003°01'10 8.3
2016-Jul-19 20:24N 46°50' W 003°10'2 2.6
2016-Jul-19 19:33N 46°48' W 003°08'2 1.7
2016-Jul-19 18:21N 46°46' W 003°09'2 1.0
2016-Jul-19 16:33N 46°45' W 003°11'2 2.1
2016-Jul-19 15:34N 46°45' W 003°08'1 0.3
2016-Jul-19 11:30N 46°46' W 003°09'2 1.5
2016-Jul-19 10:06N 46°44' W 003°07'2 3.8
2016-Jul-19 09:30N 46°42' W 003°08'1 1.3
2016-Jul-19 08:33N 46°43' W 003°09'3 3.3
2016-Jul-19 07:34N 46°46' W 003°09'2 0.6
2016-Jul-19 04:33N 46°48' W 003°11'2 1.0
2016-Jul-19 02:33N 46°49' W 003°13'3 1.2
2016-Jul-19 00:21N 46°48' W 003°17'3 3.7
2016-Jul-18 23:32N 46°49' W 003°13'2 1.1
2016-Jul-18 21:15N 46°48' W 003°16'3 4.4
2016-Jul-18 20:33N 46°48' W 003°12'11 1.5
2016-Jul-18 13:12N 46°40' W 003°02'4 2.6
2016-Jul-18 11:30N 46°44' W 002°59'16 8.1
2016-Jul-18 09:33N 46°57' W 002°46'5 4.4
2016-Jul-18 08:27N 47°02' W 002°47'7 7.9
2016-Jul-18 07:33N 47°02' W 002°58'5 5.3
2016-Jul-18 06:33N 47°03' W 003°06'7 6.9
2016-Jul-18 05:33N 47°06' W 002°57'9 9.4
2016-Jul-18 04:33N 47°11' W 002°45'9 8.8
2016-Jul-18 03:33N 47°17' W 002°36'3 3.3
2016-Jul-18 02:32N 47°18' W 002°31'0 0.0
2016-Jul-18 01:32N 47°18' W 002°31'0 0.0
2016-Jul-17 22:08N 47°18' W 002°31'0 0.0
2016-Jul-17 21:33N 47°18' W 002°31'0 0.0
2016-Jul-17 18:32N 47°18' W 002°31'0 0.0
2016-Jul-17 17:32N 47°18' W 002°31'0 0.0
2016-Jul-17 02:33N 47°18' W 002°31'0 0.0
2016-Jul-17 01:33N 47°18' W 002°31'0 0.0
2016-Jul-16 22:32N 47°18' W 002°31'0 0.0
2016-Jul-16 20:24N 47°18' W 002°31'0 0.0
2016-Jul-16 18:33N 47°18' W 002°31'2 2.1
2016-Jul-16 17:33N 47°18' W 002°34'9 9.2
2016-Jul-16 16:33N 47°11' W 002°44'9 9.3
2016-Jul-16 15:33N 47°05' W 002°54'11 9.4
2016-Jul-16 14:24N 46°58' W 003°06'9 9.5
2016-Jul-16 13:27N 46°52' W 003°15'4 3.9
2016-Jul-16 12:33N 46°51' W 003°21'4 3.8
2016-Jul-16 11:32N 46°48' W 003°19'1 0.5
2016-Jul-16 10:28N 46°47' W 003°19'3 3.6
2016-Jul-16 09:33N 46°44' W 003°18'4 3.5
2016-Jul-16 08:30N 46°47' W 003°16'4 3.7
2016-Jul-16 07:33N 46°50' W 003°14'1 1.2
2016-Jul-16 06:32N 46°49' W 003°14'12 6.0
2016-Jul-16 04:33N 46°57' W 003°02'10 9.9
2016-Jul-16 03:33N 47°04' W 002°52'10 9.9
2016-Jul-16 02:33N 47°12' W 002°42'10 9.9
2016-Jul-16 01:33N 47°19' W 002°32'2 2.0
2016-Jul-16 00:33N 47°18' W 002°35'9 9.4
2016-Jul-15 23:33N 47°10' W 002°42'10 9.9
2016-Jul-15 22:33N 47°02' W 002°51'10 9.6
2016-Jul-15 21:33N 46°54' W 002°60'9 8.6
2016-Jul-15 20:33N 46°48' W 003°07'4 3.4
2016-Jul-15 19:32N 46°50' W 003°12'2 1.2
2016-Jul-15 17:33N 46°49' W 003°15'4 0.9
2016-Jul-15 13:28N 46°46' W 003°18'2 2.0
2016-Jul-15 12:27N 46°44' W 003°18'3 3.8
2016-Jul-15 11:33N 46°48' W 003°19'4 3.8
2016-Jul-15 10:32N 46°52' W 003°18'3 3.6
2016-Jul-15 09:33N 46°53' W 003°23'4 3.5
2016-Jul-15 08:31N 46°57' W 003°24'1 0.9
2016-Jul-15 07:21N 46°57' W 003°23'2 2.6
2016-Jul-15 06:32N 46°55' W 003°24'1 1.2
2016-Jul-15 05:33N 46°55' W 003°22'4 3.8
2016-Jul-15 04:33N 46°59' W 003°23'4 4.5
2016-Jul-15 03:33N 47°00' W 003°16'9 8.7
2016-Jul-15 02:33N 47°05' W 003°05'8 8.4
2016-Jul-15 01:33N 47°09' W 002°55'8 7.9
2016-Jul-15 00:33N 47°12' W 002°44'8 7.8
2016-Jul-14 23:33N 47°18' W 002°36'4 3.4
2016-Jul-14 22:32N 47°18' W 002°31'3 3.3
2016-Jul-14 21:33N 47°17' W 002°35'9 9.3
2016-Jul-14 20:33N 47°10' W 002°44'10 9.6
2016-Jul-14 19:33N 47°03' W 002°54'  

Dump ship's entire track history